This is the latest recevied weather packets stored in our database for station/object K6CQU-13. If no packets are shown the sender has not sent any weather packets the latest 10 day(s).
| Time | Temp. | Humidity | Pressure | Rain* | Wind** | Luminosity | Snow |
|---|---|---|---|---|---|---|---|
| 1777852817 | 19.44° C | 57% | 1011.5 hPa | 0 mm | - | 213 W/m² | - |
| 1777852517 | 19.44° C | 55% | 1011.6 hPa | 0 mm | - | 166 W/m² | - |
| 1777852217 | 20° C | 54% | 1011.4 hPa | 0 mm | - | 220 W/m² | - |
| 1777851917 | 20° C | 53% | 1011.4 hPa | 0 mm | - | 211 W/m² | - |
| 1777851616 | 20.56° C | 53% | 1011.5 hPa | 0 mm | - | 184 W/m² | - |
| 1777851317 | 20.56° C | 52% | 1011.4 hPa | 0 mm | - | 208 W/m² | - |
| 1777851016 | 20.56° C | 52% | 1011.3 hPa | 0 mm | - | 384 W/m² | - |
| 1777850717 | 20.56° C | 51% | 1011.3 hPa | 0 mm | - | 229 W/m² | - |
| 1777850416 | 21.11° C | 51% | 1011.3 hPa | 0 mm | - | 211 W/m² | - |
| 1777850117 | 21.11° C | 51% | 1011.3 hPa | 0 mm | - | 363 W/m² | - |
| 1777849817 | 21.11° C | 52% | 1011.3 hPa | 0 mm | - | 721 W/m² | - |
| 1777849516 | 21.11° C | 52% | 1011.3 hPa | 0 mm | - | 785 W/m² | - |
| 1777849217 | 21.11° C | 52% | 1011.4 hPa | 0 mm | - | 349 W/m² | - |
| 1777848917 | 21.11° C | 51% | 1011.4 hPa | 0 mm | - | 197 W/m² | - |
| 1777848616 | 21.11° C | 52% | 1011.4 hPa | 0 mm | - | 779 W/m² | - |
| 1777848316 | 20.56° C | 54% | 1011.3 hPa | 0 mm | - | 820 W/m² | - |
| 1777848016 | 20° C | 54% | 1011.4 hPa | 0 mm | - | 264 W/m² | - |
| 1777847716 | 20.56° C | 53% | 1011.4 hPa | 0 mm | - | 162 W/m² | - |
| 1777847416 | 20° C | 56% | 1011.5 hPa | 0 mm | - | 712 W/m² | - |
| 1777847116 | 20° C | 56% | 1011.4 hPa | 0 mm | - | 774 W/m² | - |
| 1777846816 | 20° C | 54% | 1011.5 hPa | 0 mm | - | 303 W/m² | - |
| 1777846516 | 21.11° C | 52% | 1011.5 hPa | 0 mm | - | 279 W/m² | - |
| 1777846216 | 21.11° C | 51% | 1011.6 hPa | 0 mm | - | 295 W/m² | - |
| 1777845916 | 21.11° C | 52% | 1011.7 hPa | 0 mm | - | 1055 W/m² | - |
| 1777845616 | 21.11° C | 50% | 1011.6 hPa | 0 mm | - | 294 W/m² | - |
* Rain latest hour (hover to see other rain measurements)
** Current wind speed in m/s (hover to see current wind gust speed)